Skip Navigation Links Skip Navigation Links

Current Weather

Newark Intl, Newark, N.J.

For information only: do not use for flight planning or navigation.
Latest weather
Observation time Thursday, November 14, 2019 7:51 PM EST
Local time Thursday, November 14, 2019 8:08 PM EST
Flight conditions Visual Meteorological Conditions
Winds
Wind direction Southwest (220°)
Wind speed 12 mph
Visibility 10 mi.
Sky condition
Ceiling 14,000 ft. broken clouds
Cloud layer broken clouds 14,000 ft.
Cloud layer broken clouds 25,000 ft.
Temperature 43°F
Dewpoint 25°F
Altimeter 30.30 in.Hg
Derived measurements
Relative humidity 49%
Wind chill 37°F
Density altitude -1416 ft.
Sea-level pressure 30.30 in.Hg
Remarks
System requires maintenance.
Automated weather observing station with precipitation discriminator.
METAR KEWR 150051Z 22010KT 10SM BKN140 BKN250 06/M04 A3030 RMK AO2 SLP260 T00611039 $

Settings

Location code

InnerDrive.Weather 4.0.6770.0 Release CLR 4.0.30319.42000
Copyright ©2018 Inner Drive Technology. All rights reserved. Portions Copyright ©1986-2018 David Braverman.

Find weather

Site navigation


Skip Navigation Links

Place info

Page info

PayPal - The safer, easier way to pay online!

Return home.

Copyright ©2019 Inner Drive Technology. Purveyors of fine, hand-crafted computer software. Page printed 2019-11-15T01:08:37 UTC.